sensor_id;sensor_type;location;lat;lon;timestamp;temperature;humidity
35373;DHT22;21476;51.652;7.852;2023-02-21T00:00:15;8.40;99.90
35373;DHT22;21476;51.652;7.852;2023-02-21T00:02:59;8.40;99.90
35373;DHT22;21476;51.652;7.852;2023-02-21T00:05:43;8.40;99.90
35373;DHT22;21476;51.652;7.852;2023-02-21T00:08:27;8.40;99.90
35373;DHT22;21476;51.652;7.852;2023-02-21T00:11:11;8.40;99.90
35373;DHT22;21476;51.652;7.852;2023-02-21T00:13:55;8.30;99.90
35373;DHT22;21476;51.652;7.852;2023-02-21T00:16:40;8.40;99.90
35373;DHT22;21476;51.652;7.852;2023-02-21T00:19:24;8.40;99.90
35373;DHT22;21476;51.652;7.852;2023-02-21T00:22:08;8.40;99.90
35373;DHT22;21476;51.652;7.852;2023-02-21T00:24:52;8.40;99.90
35373;DHT22;21476;51.652;7.852;2023-02-21T00:27:36;8.30;99.90
35373;DHT22;21476;51.652;7.852;2023-02-21T00:30:20;8.30;99.90
35373;DHT22;21476;51.652;7.852;2023-02-21T00:33:04;8.40;99.90
35373;DHT22;21476;51.652;7.852;2023-02-21T00:35:48;8.40;99.90
35373;DHT22;21476;51.652;7.852;2023-02-21T00:38:32;8.30;99.90
35373;DHT22;21476;51.652;7.852;2023-02-21T00:41:16;8.30;99.90
35373;DHT22;21476;51.652;7.852;2023-02-21T00:44:00;8.40;99.90
35373;DHT22;21476;51.652;7.852;2023-02-21T00:46:44;8.40;99.90
35373;DHT22;21476;51.652;7.852;2023-02-21T00:49:28;8.40;99.90
35373;DHT22;21476;51.652;7.852;2023-02-21T00:52:12;8.40;99.90
35373;DHT22;21476;51.652;7.852;2023-02-21T00:54:56;8.40;99.90
35373;DHT22;21476;51.652;7.852;2023-02-21T00:57:40;8.30;99.90
35373;DHT22;21476;51.652;7.852;2023-02-21T01:00:24;8.30;99.90
35373;DHT22;21476;51.652;7.852;2023-02-21T01:03:09;8.30;99.90
35373;DHT22;21476;51.652;7.852;2023-02-21T01:05:54;8.30;99.90
35373;DHT22;21476;51.652;7.852;2023-02-21T01:08:45;8.30;99.90
35373;DHT22;21476;51.652;7.852;2023-02-21T01:11:29;8.20;99.90
35373;DHT22;21476;51.652;7.852;2023-02-21T01:14:14;8.30;99.90
35373;DHT22;21476;51.652;7.852;2023-02-21T01:16:59;8.20;99.90
35373;DHT22;21476;51.652;7.852;2023-02-21T01:19:43;8.20;99.90
35373;DHT22;21476;51.652;7.852;2023-02-21T01:22:28;8.30;99.90
35373;DHT22;21476;51.652;7.852;2023-02-21T01:25:14;8.30;99.90
35373;DHT22;21476;51.652;7.852;2023-02-21T01:27:58;8.30;99.90
35373;DHT22;21476;51.652;7.852;2023-02-21T01:30:42;8.20;99.90
35373;DHT22;21476;51.652;7.852;2023-02-21T01:33:27;8.30;99.90
35373;DHT22;21476;51.652;7.852;2023-02-21T01:36:11;8.30;99.90
35373;DHT22;21476;51.652;7.852;2023-02-21T01:38:55;8.30;99.90
35373;DHT22;21476;51.652;7.852;2023-02-21T01:41:39;8.20;99.90
35373;DHT22;21476;51.652;7.852;2023-02-21T01:44:36;8.20;99.90
35373;DHT22;21476;51.652;7.852;2023-02-21T01:47:21;8.20;99.90
35373;DHT22;21476;51.652;7.852;2023-02-21T01:50:22;8.20;99.90
35373;DHT22;21476;51.652;7.852;2023-02-21T01:53:14;8.20;99.90
35373;DHT22;21476;51.652;7.852;2023-02-21T01:56:00;8.20;99.90
35373;DHT22;21476;51.652;7.852;2023-02-21T01:58:46;8.20;99.90
35373;DHT22;21476;51.652;7.852;2023-02-21T02:01:43;8.20;99.90
35373;DHT22;21476;51.652;7.852;2023-02-21T02:04:30;8.20;99.90
35373;DHT22;21476;51.652;7.852;2023-02-21T02:07:14;8.10;99.90
35373;DHT22;21476;51.652;7.852;2023-02-21T02:09:59;8.20;99.90
35373;DHT22;21476;51.652;7.852;2023-02-21T02:15:58;8.10;99.90
35373;DHT22;21476;51.652;7.852;2023-02-21T02:25:08;8.20;99.90
35373;DHT22;21476;51.652;7.852;2023-02-21T02:30:51;8.20;99.90
35373;DHT22;21476;51.652;7.852;2023-02-21T02:36:20;8.20;99.90
35373;DHT22;21476;51.652;7.852;2023-02-21T02:39:12;8.10;99.90
35373;DHT22;21476;51.652;7.852;2023-02-21T02:44:38;8.10;99.90
35373;DHT22;21476;51.652;7.852;2023-02-21T02:47:07;8.20;99.90
35373;DHT22;21476;51.652;7.852;2023-02-21T02:49:37;8.10;99.90
35373;DHT22;21476;51.652;7.852;2023-02-21T02:52:05;8.10;99.90
35373;DHT22;21476;51.652;7.852;2023-02-21T02:54:31;8.20;99.90
35373;DHT22;21476;51.652;7.852;2023-02-21T02:56:58;8.20;99.90
35373;DHT22;21476;51.652;7.852;2023-02-21T02:59:26;8.20;99.90
35373;DHT22;21476;51.652;7.852;2023-02-21T03:07:57;8.10;99.90
35373;DHT22;21476;51.652;7.852;2023-02-21T03:10:37;8.10;99.90
35373;DHT22;21476;51.652;7.852;2023-02-21T03:13:17;8.10;99.90
35373;DHT22;21476;51.652;7.852;2023-02-21T03:15:56;8.10;99.90
35373;DHT22;21476;51.652;7.852;2023-02-21T03:21:13;8.10;99.90
35373;DHT22;21476;51.652;7.852;2023-02-21T03:23:42;8.10;99.90
35373;DHT22;21476;51.652;7.852;2023-02-21T03:26:10;8.10;99.90
35373;DHT22;21476;51.652;7.852;2023-02-21T03:28:37;8.10;99.90
35373;DHT22;21476;51.652;7.852;2023-02-21T03:31:06;8.10;99.90
35373;DHT22;21476;51.652;7.852;2023-02-21T03:33:33;8.10;99.90
35373;DHT22;21476;51.652;7.852;2023-02-21T03:36:00;8.10;99.90
35373;DHT22;21476;51.652;7.852;2023-02-21T03:38:29;8.10;99.90
35373;DHT22;21476;51.652;7.852;2023-02-21T03:40:55;8.00;99.90
35373;DHT22;21476;51.652;7.852;2023-02-21T03:43:20;8.00;99.90
35373;DHT22;21476;51.652;7.852;2023-02-21T03:45:46;7.90;99.90
35373;DHT22;21476;51.652;7.852;2023-02-21T03:48:12;7.90;99.90
35373;DHT22;21476;51.652;7.852;2023-02-21T03:50:37;7.90;99.90
35373;DHT22;21476;51.652;7.852;2023-02-21T03:53:03;7.90;99.90
35373;DHT22;21476;51.652;7.852;2023-02-21T03:55:29;8.00;99.90
35373;DHT22;21476;51.652;7.852;2023-02-21T03:57:54;8.00;99.90
35373;DHT22;21476;51.652;7.852;2023-02-21T04:00:20;8.00;99.90
35373;DHT22;21476;51.652;7.852;2023-02-21T04:02:46;8.10;99.90
35373;DHT22;21476;51.652;7.852;2023-02-21T04:05:11;8.00;99.90
35373;DHT22;21476;51.652;7.852;2023-02-21T04:07:37;8.00;99.90
35373;DHT22;21476;51.652;7.852;2023-02-21T04:10:03;8.00;99.90
35373;DHT22;21476;51.652;7.852;2023-02-21T04:12:28;8.00;99.90
35373;DHT22;21476;51.652;7.852;2023-02-21T04:14:54;8.00;99.90
35373;DHT22;21476;51.652;7.852;2023-02-21T04:17:21;7.90;99.90
35373;DHT22;21476;51.652;7.852;2023-02-21T04:19:46;8.00;99.90
35373;DHT22;21476;51.652;7.852;2023-02-21T04:22:12;8.00;99.90
35373;DHT22;21476;51.652;7.852;2023-02-21T04:24:37;8.00;99.90
35373;DHT22;21476;51.652;7.852;2023-02-21T04:27:03;8.00;99.90
35373;DHT22;21476;51.652;7.852;2023-02-21T04:29:29;8.00;99.90
35373;DHT22;21476;51.652;7.852;2023-02-21T04:31:54;8.00;99.90
35373;DHT22;21476;51.652;7.852;2023-02-21T04:34:20;8.00;99.90
35373;DHT22;21476;51.652;7.852;2023-02-21T04:36:46;8.00;99.90
35373;DHT22;21476;51.652;7.852;2023-02-21T04:39:12;8.00;99.90
35373;DHT22;21476;51.652;7.852;2023-02-21T04:41:38;8.00;99.90
35373;DHT22;21476;51.652;7.852;2023-02-21T04:44:04;8.00;99.90
35373;DHT22;21476;51.652;7.852;2023-02-21T04:46:30;8.00;99.90
35373;DHT22;21476;51.652;7.852;2023-02-21T04:48:56;8.00;99.90
35373;DHT22;21476;51.652;7.852;2023-02-21T04:51:23;8.00;99.90
35373;DHT22;21476;51.652;7.852;2023-02-21T04:53:49;8.10;99.90
35373;DHT22;21476;51.652;7.852;2023-02-21T04:56:18;8.10;99.90
35373;DHT22;21476;51.652;7.852;2023-02-21T04:58:45;8.00;99.90
35373;DHT22;21476;51.652;7.852;2023-02-21T05:01:11;8.00;99.90
35373;DHT22;21476;51.652;7.852;2023-02-21T05:03:37;8.10;99.90
35373;DHT22;21476;51.652;7.852;2023-02-21T05:06:03;8.00;99.90
35373;DHT22;21476;51.652;7.852;2023-02-21T05:08:28;8.00;99.90
35373;DHT22;21476;51.652;7.852;2023-02-21T05:10:54;8.00;99.90
35373;DHT22;21476;51.652;7.852;2023-02-21T05:13:20;8.00;99.90
35373;DHT22;21476;51.652;7.852;2023-02-21T05:15:47;8.10;99.90
35373;DHT22;21476;51.652;7.852;2023-02-21T05:18:13;8.10;99.90
35373;DHT22;21476;51.652;7.852;2023-02-21T05:20:39;8.20;99.90
35373;DHT22;21476;51.652;7.852;2023-02-21T05:23:04;8.10;99.90
35373;DHT22;21476;51.652;7.852;2023-02-21T05:25:30;8.10;99.90
35373;DHT22;21476;51.652;7.852;2023-02-21T05:27:56;8.10;99.90
35373;DHT22;21476;51.652;7.852;2023-02-21T05:30:22;8.10;99.90
35373;DHT22;21476;51.652;7.852;2023-02-21T05:32:51;8.10;99.90
35373;DHT22;21476;51.652;7.852;2023-02-21T05:35:16;8.10;99.90
35373;DHT22;21476;51.652;7.852;2023-02-21T05:37:43;8.10;99.90
35373;DHT22;21476;51.652;7.852;2023-02-21T05:40:14;8.10;99.90
35373;DHT22;21476;51.652;7.852;2023-02-21T05:42:41;8.10;99.90
35373;DHT22;21476;51.652;7.852;2023-02-21T05:45:06;8.10;99.90
35373;DHT22;21476;51.652;7.852;2023-02-21T05:47:33;8.10;99.90
35373;DHT22;21476;51.652;7.852;2023-02-21T05:49:59;8.10;99.90
35373;DHT22;21476;51.652;7.852;2023-02-21T05:52:25;8.10;99.90
35373;DHT22;21476;51.652;7.852;2023-02-21T05:54:51;8.20;99.90
35373;DHT22;21476;51.652;7.852;2023-02-21T05:57:17;8.10;99.90
35373;DHT22;21476;51.652;7.852;2023-02-21T05:59:43;8.00;99.90
35373;DHT22;21476;51.652;7.852;2023-02-21T06:02:09;8.00;99.90
35373;DHT22;21476;51.652;7.852;2023-02-21T06:04:34;8.00;99.90
35373;DHT22;21476;51.652;7.852;2023-02-21T06:07:00;8.00;99.90
35373;DHT22;21476;51.652;7.852;2023-02-21T06:09:25;8.00;99.90
35373;DHT22;21476;51.652;7.852;2023-02-21T06:11:55;8.00;99.90
35373;DHT22;21476;51.652;7.852;2023-02-21T06:14:21;8.00;99.90
35373;DHT22;21476;51.652;7.852;2023-02-21T06:16:46;8.00;99.90
35373;DHT22;21476;51.652;7.852;2023-02-21T06:19:14;8.00;99.90
35373;DHT22;21476;51.652;7.852;2023-02-21T06:21:41;8.00;99.90
35373;DHT22;21476;51.652;7.852;2023-02-21T06:24:08;7.90;99.90
35373;DHT22;21476;51.652;7.852;2023-02-21T06:26:34;7.90;99.90
35373;DHT22;21476;51.652;7.852;2023-02-21T06:29:02;7.90;99.90
35373;DHT22;21476;51.652;7.852;2023-02-21T06:31:28;7.90;99.90
35373;DHT22;21476;51.652;7.852;2023-02-21T06:33:54;7.90;99.90
35373;DHT22;21476;51.652;7.852;2023-02-21T06:36:23;7.90;99.90
35373;DHT22;21476;51.652;7.852;2023-02-21T06:38:51;7.90;99.90
35373;DHT22;21476;51.652;7.852;2023-02-21T06:41:19;7.90;99.90
35373;DHT22;21476;51.652;7.852;2023-02-21T06:43:45;7.90;99.90
35373;DHT22;21476;51.652;7.852;2023-02-21T06:46:18;7.80;99.90
35373;DHT22;21476;51.652;7.852;2023-02-21T06:48:44;7.90;99.90
35373;DHT22;21476;51.652;7.852;2023-02-21T06:51:10;7.80;99.90
35373;DHT22;21476;51.652;7.852;2023-02-21T06:53:36;7.90;99.90
35373;DHT22;21476;51.652;7.852;2023-02-21T06:56:03;7.80;99.90
35373;DHT22;21476;51.652;7.852;2023-02-21T06:58:29;7.80;99.90
35373;DHT22;21476;51.652;7.852;2023-02-21T07:00:54;7.90;99.90
35373;DHT22;21476;51.652;7.852;2023-02-21T07:03:20;7.90;99.90
35373;DHT22;21476;51.652;7.852;2023-02-21T07:05:46;7.80;99.90
35373;DHT22;21476;51.652;7.852;2023-02-21T07:08:11;7.80;99.90
35373;DHT22;21476;51.652;7.852;2023-02-21T07:10:37;7.80;99.90
35373;DHT22;21476;51.652;7.852;2023-02-21T07:13:02;7.80;99.90
35373;DHT22;21476;51.652;7.852;2023-02-21T07:15:28;7.80;99.90
35373;DHT22;21476;51.652;7.852;2023-02-21T07:17:54;7.80;99.90
35373;DHT22;21476;51.652;7.852;2023-02-21T07:20:19;7.80;99.90
35373;DHT22;21476;51.652;7.852;2023-02-21T07:22:45;7.90;99.90
35373;DHT22;21476;51.652;7.852;2023-02-21T07:25:19;7.90;99.90
35373;DHT22;21476;51.652;7.852;2023-02-21T07:27:48;7.90;99.90
35373;DHT22;21476;51.652;7.852;2023-02-21T07:30:15;7.90;99.90
35373;DHT22;21476;51.652;7.852;2023-02-21T07:32:40;7.90;99.90
35373;DHT22;21476;51.652;7.852;2023-02-21T07:35:07;7.90;99.90
35373;DHT22;21476;51.652;7.852;2023-02-21T07:37:33;8.00;99.90
35373;DHT22;21476;51.652;7.852;2023-02-21T07:39:58;8.00;99.90
35373;DHT22;21476;51.652;7.852;2023-02-21T07:42:24;8.00;99.90
35373;DHT22;21476;51.652;7.852;2023-02-21T07:44:54;8.00;99.90
35373;DHT22;21476;51.652;7.852;2023-02-21T07:47:21;8.00;99.90
35373;DHT22;21476;51.652;7.852;2023-02-21T07:49:47;8.10;99.90
35373;DHT22;21476;51.652;7.852;2023-02-21T07:52:12;8.00;99.90
35373;DHT22;21476;51.652;7.852;2023-02-21T07:54:38;8.10;99.90
35373;DHT22;21476;51.652;7.852;2023-02-21T07:57:04;8.00;99.90
35373;DHT22;21476;51.652;7.852;2023-02-21T07:59:30;8.00;99.90
35373;DHT22;21476;51.652;7.852;2023-02-21T08:01:55;8.10;99.90
35373;DHT22;21476;51.652;7.852;2023-02-21T08:04:21;8.10;99.90
35373;DHT22;21476;51.652;7.852;2023-02-21T08:06:48;8.20;99.90
35373;DHT22;21476;51.652;7.852;2023-02-21T08:09:14;8.10;99.90
35373;DHT22;21476;51.652;7.852;2023-02-21T08:11:39;8.10;99.90
35373;DHT22;21476;51.652;7.852;2023-02-21T08:14:05;8.20;99.90
35373;DHT22;21476;51.652;7.852;2023-02-21T08:16:32;8.20;99.90
35373;DHT22;21476;51.652;7.852;2023-02-21T08:18:58;8.20;99.90
35373;DHT22;21476;51.652;7.852;2023-02-21T08:21:24;8.20;99.90
35373;DHT22;21476;51.652;7.852;2023-02-21T08:23:53;8.40;99.90
35373;DHT22;21476;51.652;7.852;2023-02-21T08:26:19;8.30;99.90
35373;DHT22;21476;51.652;7.852;2023-02-21T08:28:45;8.40;99.90
35373;DHT22;21476;51.652;7.852;2023-02-21T08:31:11;8.40;99.90
35373;DHT22;21476;51.652;7.852;2023-02-21T08:33:37;8.40;99.90
35373;DHT22;21476;51.652;7.852;2023-02-21T08:36:03;8.50;99.90
35373;DHT22;21476;51.652;7.852;2023-02-21T08:38:28;8.50;99.90
35373;DHT22;21476;51.652;7.852;2023-02-21T08:40:54;8.50;99.90
35373;DHT22;21476;51.652;7.852;2023-02-21T08:43:20;8.60;99.90
35373;DHT22;21476;51.652;7.852;2023-02-21T08:45:45;8.50;99.90
35373;DHT22;21476;51.652;7.852;2023-02-21T08:48:11;8.60;99.90
35373;DHT22;21476;51.652;7.852;2023-02-21T08:50:37;8.60;99.90
35373;DHT22;21476;51.652;7.852;2023-02-21T08:53:02;8.60;99.90
35373;DHT22;21476;51.652;7.852;2023-02-21T08:55:28;8.70;99.90
35373;DHT22;21476;51.652;7.852;2023-02-21T08:57:54;8.60;99.90
35373;DHT22;21476;51.652;7.852;2023-02-21T09:00:21;8.70;99.90
35373;DHT22;21476;51.652;7.852;2023-02-21T09:02:51;8.60;99.90
35373;DHT22;21476;51.652;7.852;2023-02-21T09:05:24;8.70;99.90
35373;DHT22;21476;51.652;7.852;2023-02-21T09:07:51;8.70;99.90
35373;DHT22;21476;51.652;7.852;2023-02-21T09:10:27;8.70;99.90
35373;DHT22;21476;51.652;7.852;2023-02-21T09:12:52;8.80;99.90
35373;DHT22;21476;51.652;7.852;2023-02-21T09:15:18;8.60;99.90
35373;DHT22;21476;51.652;7.852;2023-02-21T09:17:44;8.60;99.90
35373;DHT22;21476;51.652;7.852;2023-02-21T09:20:15;8.70;99.90
35373;DHT22;21476;51.652;7.852;2023-02-21T09:22:43;8.80;99.90
35373;DHT22;21476;51.652;7.852;2023-02-21T09:25:12;8.80;99.90
35373;DHT22;21476;51.652;7.852;2023-02-21T09:27:38;8.80;99.90
35373;DHT22;21476;51.652;7.852;2023-02-21T09:30:08;8.70;99.90
35373;DHT22;21476;51.652;7.852;2023-02-21T09:32:34;8.80;99.90
35373;DHT22;21476;51.652;7.852;2023-02-21T09:35:01;8.70;99.90
35373;DHT22;21476;51.652;7.852;2023-02-21T09:37:27;8.70;99.90
35373;DHT22;21476;51.652;7.852;2023-02-21T09:39:53;8.80;99.90
35373;DHT22;21476;51.652;7.852;2023-02-21T09:42:21;8.80;99.90
35373;DHT22;21476;51.652;7.852;2023-02-21T09:44:48;8.80;99.90
35373;DHT22;21476;51.652;7.852;2023-02-21T09:49:53;8.70;99.90
35373;DHT22;21476;51.652;7.852;2023-02-21T09:52:30;8.80;99.90
35373;DHT22;21476;51.652;7.852;2023-02-21T09:54:57;8.80;99.90
35373;DHT22;21476;51.652;7.852;2023-02-21T09:57:24;8.80;99.90
35373;DHT22;21476;51.652;7.852;2023-02-21T09:59:50;8.70;99.90
35373;DHT22;21476;51.652;7.852;2023-02-21T10:02:59;8.70;99.90
35373;DHT22;21476;51.652;7.852;2023-02-21T10:05:22;8.70;99.90
35373;DHT22;21476;51.652;7.852;2023-02-21T10:08:00;8.70;99.90
35373;DHT22;21476;51.652;7.852;2023-02-21T10:10:43;8.70;99.90
35373;DHT22;21476;51.652;7.852;2023-02-21T10:16:24;8.80;99.90
35373;DHT22;21476;51.652;7.852;2023-02-21T10:19:11;8.90;99.90
35373;DHT22;21476;51.652;7.852;2023-02-21T10:21:45;8.80;99.90
35373;DHT22;21476;51.652;7.852;2023-02-21T10:24:16;8.90;99.90
35373;DHT22;21476;51.652;7.852;2023-02-21T10:26:58;8.90;99.90
35373;DHT22;21476;51.652;7.852;2023-02-21T10:29:29;8.90;99.90
35373;DHT22;21476;51.652;7.852;2023-02-21T10:31:59;9.00;99.90
35373;DHT22;21476;51.652;7.852;2023-02-21T10:34:28;9.00;99.90
35373;DHT22;21476;51.652;7.852;2023-02-21T10:36:56;8.90;99.90
35373;DHT22;21476;51.652;7.852;2023-02-21T10:39:45;9.00;99.90
35373;DHT22;21476;51.652;7.852;2023-02-21T10:42:35;9.00;99.90
35373;DHT22;21476;51.652;7.852;2023-02-21T10:45:04;9.00;99.90
35373;DHT22;21476;51.652;7.852;2023-02-21T10:53:34;9.10;99.90
35373;DHT22;21476;51.652;7.852;2023-02-21T10:59:05;9.20;99.90
35373;DHT22;21476;51.652;7.852;2023-02-21T11:01:42;9.20;99.90
35373;DHT22;21476;51.652;7.852;2023-02-21T11:14:33;8.80;99.90
35373;DHT22;21476;51.652;7.852;2023-02-21T11:17:23;8.90;99.90
35373;DHT22;21476;51.652;7.852;2023-02-21T11:19:55;8.90;99.90
35373;DHT22;21476;51.652;7.852;2023-02-21T11:22:41;8.70;99.90
35373;DHT22;21476;51.652;7.852;2023-02-21T11:27:37;8.80;99.90
35373;DHT22;21476;51.652;7.852;2023-02-21T11:30:13;8.90;99.90
35373;DHT22;21476;51.652;7.852;2023-02-21T11:32:41;8.90;99.90
35373;DHT22;21476;51.652;7.852;2023-02-21T11:38:05;9.00;99.90
35373;DHT22;21476;51.652;7.852;2023-02-21T11:43:12;9.00;99.90
35373;DHT22;21476;51.652;7.852;2023-02-21T11:46:07;8.90;99.90
35373;DHT22;21476;51.652;7.852;2023-02-21T11:51:45;9.00;99.90
35373;DHT22;21476;51.652;7.852;2023-02-21T11:54:12;8.90;99.90
35373;DHT22;21476;51.652;7.852;2023-02-21T11:56:49;9.00;99.90
35373;DHT22;21476;51.652;7.852;2023-02-21T12:13:13;9.10;99.90
35373;DHT22;21476;51.652;7.852;2023-02-21T12:24:17;9.20;99.90
35373;DHT22;21476;51.652;7.852;2023-02-21T12:26:55;9.10;99.90
35373;DHT22;21476;51.652;7.852;2023-02-21T12:46:27;9.30;99.90
35373;DHT22;21476;51.652;7.852;2023-02-21T12:54:41;9.40;99.90
35373;DHT22;21476;51.652;7.852;2023-02-21T12:57:12;9.40;99.90
35373;DHT22;21476;51.652;7.852;2023-02-21T13:05:40;9.20;99.90
35373;DHT22;21476;51.652;7.852;2023-02-21T13:08:21;9.30;99.90
35373;DHT22;21476;51.652;7.852;2023-02-21T13:13:24;9.50;99.90
35373;DHT22;21476;51.652;7.852;2023-02-21T13:15:51;9.70;99.90
35373;DHT22;21476;51.652;7.852;2023-02-21T13:18:54;9.60;99.90
35373;DHT22;21476;51.652;7.852;2023-02-21T13:30:03;9.60;99.90
35373;DHT22;21476;51.652;7.852;2023-02-21T13:32:36;9.50;99.90
35373;DHT22;21476;51.652;7.852;2023-02-21T13:35:06;9.60;99.90
35373;DHT22;21476;51.652;7.852;2023-02-21T13:37:34;9.60;99.90
35373;DHT22;21476;51.652;7.852;2023-02-21T13:40:11;9.70;99.90
35373;DHT22;21476;51.652;7.852;2023-02-21T13:42:41;9.80;99.90
35373;DHT22;21476;51.652;7.852;2023-02-21T13:45:18;9.70;99.90
35373;DHT22;21476;51.652;7.852;2023-02-21T13:55:37;10.10;99.90
35373;DHT22;21476;51.652;7.852;2023-02-21T14:13:52;10.30;99.90
35373;DHT22;21476;51.652;7.852;2023-02-21T14:16:25;10.30;99.90
35373;DHT22;21476;51.652;7.852;2023-02-21T14:19:10;10.40;99.90
35373;DHT22;21476;51.652;7.852;2023-02-21T14:21:42;10.60;99.90
35373;DHT22;21476;51.652;7.852;2023-02-21T14:29:37;10.90;99.90
35373;DHT22;21476;51.652;7.852;2023-02-21T14:34:40;11.00;99.90
35373;DHT22;21476;51.652;7.852;2023-02-21T14:37:21;11.00;99.90
35373;DHT22;21476;51.652;7.852;2023-02-21T14:39:51;11.00;99.90
35373;DHT22;21476;51.652;7.852;2023-02-21T14:59:57;10.60;99.90
35373;DHT22;21476;51.652;7.852;2023-02-21T15:02:38;10.60;99.90
35373;DHT22;21476;51.652;7.852;2023-02-21T15:05:29;10.50;99.90
35373;DHT22;21476;51.652;7.852;2023-02-21T15:08:06;10.60;99.90
35373;DHT22;21476;51.652;7.852;2023-02-21T15:10:44;10.50;99.90
35373;DHT22;21476;51.652;7.852;2023-02-21T15:13:28;10.60;99.90
35373;DHT22;21476;51.652;7.852;2023-02-21T15:18:26;10.60;99.90
35373;DHT22;21476;51.652;7.852;2023-02-21T15:21:10;10.50;99.90
35373;DHT22;21476;51.652;7.852;2023-02-21T15:23:44;10.50;99.90
35373;DHT22;21476;51.652;7.852;2023-02-21T15:28:46;10.40;99.90
35373;DHT22;21476;51.652;7.852;2023-02-21T15:31:26;10.40;99.90
35373;DHT22;21476;51.652;7.852;2023-02-21T15:33:52;10.30;99.90
35373;DHT22;21476;51.652;7.852;2023-02-21T15:36:21;10.30;99.90
35373;DHT22;21476;51.652;7.852;2023-02-21T15:41:47;10.30;99.90
35373;DHT22;21476;51.652;7.852;2023-02-21T15:44:25;10.20;99.90
35373;DHT22;21476;51.652;7.852;2023-02-21T15:47:01;10.30;99.90
35373;DHT22;21476;51.652;7.852;2023-02-21T15:49:47;10.30;99.90
35373;DHT22;21476;51.652;7.852;2023-02-21T15:52:38;10.20;99.90
35373;DHT22;21476;51.652;7.852;2023-02-21T15:58:15;10.20;99.90
35373;DHT22;21476;51.652;7.852;2023-02-21T16:00:49;10.20;99.90
35373;DHT22;21476;51.652;7.852;2023-02-21T16:03:37;10.10;99.90
35373;DHT22;21476;51.652;7.852;2023-02-21T16:08:32;10.10;99.90
35373;DHT22;21476;51.652;7.852;2023-02-21T16:11:02;10.10;99.90
35373;DHT22;21476;51.652;7.852;2023-02-21T16:13:38;10.10;99.90
35373;DHT22;21476;51.652;7.852;2023-02-21T16:16:08;10.00;99.90
35373;DHT22;21476;51.652;7.852;2023-02-21T16:18:37;10.00;99.90
35373;DHT22;21476;51.652;7.852;2023-02-21T16:21:07;9.90;99.90
35373;DHT22;21476;51.652;7.852;2023-02-21T16:23:52;9.90;99.90
35373;DHT22;21476;51.652;7.852;2023-02-21T16:26:23;9.90;99.90
35373;DHT22;21476;51.652;7.852;2023-02-21T16:28:54;9.80;99.90
35373;DHT22;21476;51.652;7.852;2023-02-21T16:31:32;9.90;99.90
35373;DHT22;21476;51.652;7.852;2023-02-21T16:33:58;9.80;99.90
35373;DHT22;21476;51.652;7.852;2023-02-21T16:36:29;9.80;99.90
35373;DHT22;21476;51.652;7.852;2023-02-21T16:38:56;9.80;99.90
35373;DHT22;21476;51.652;7.852;2023-02-21T16:41:25;9.80;99.90
35373;DHT22;21476;51.652;7.852;2023-02-21T16:43:53;9.80;99.90
35373;DHT22;21476;51.652;7.852;2023-02-21T16:46:24;9.80;99.90
35373;DHT22;21476;51.652;7.852;2023-02-21T16:48:58;9.80;99.90
35373;DHT22;21476;51.652;7.852;2023-02-21T16:51:24;9.70;99.90
35373;DHT22;21476;51.652;7.852;2023-02-21T16:54:05;9.70;99.90
35373;DHT22;21476;51.652;7.852;2023-02-21T16:56:41;9.70;99.90
35373;DHT22;21476;51.652;7.852;2023-02-21T16:59:13;9.70;99.90
35373;DHT22;21476;51.652;7.852;2023-02-21T17:01:42;9.70;99.90
35373;DHT22;21476;51.652;7.852;2023-02-21T17:04:34;9.70;99.90
35373;DHT22;21476;51.652;7.852;2023-02-21T17:07:03;9.60;99.90
35373;DHT22;21476;51.652;7.852;2023-02-21T17:09:29;9.60;99.90
35373;DHT22;21476;51.652;7.852;2023-02-21T17:11:58;9.60;99.90
35373;DHT22;21476;51.652;7.852;2023-02-21T17:14:27;9.50;99.90
35373;DHT22;21476;51.652;7.852;2023-02-21T17:16:52;9.50;99.90
35373;DHT22;21476;51.652;7.852;2023-02-21T17:19:19;9.50;99.90
35373;DHT22;21476;51.652;7.852;2023-02-21T17:21:54;9.50;99.90
35373;DHT22;21476;51.652;7.852;2023-02-21T17:24:22;9.40;99.90
35373;DHT22;21476;51.652;7.852;2023-02-21T17:26:51;9.50;99.90
35373;DHT22;21476;51.652;7.852;2023-02-21T17:29:17;9.50;99.90
35373;DHT22;21476;51.652;7.852;2023-02-21T17:31:42;9.50;99.90
35373;DHT22;21476;51.652;7.852;2023-02-21T17:34:13;9.60;99.90
35373;DHT22;21476;51.652;7.852;2023-02-21T17:36:52;9.60;99.90
35373;DHT22;21476;51.652;7.852;2023-02-21T17:39:19;9.50;99.90
35373;DHT22;21476;51.652;7.852;2023-02-21T17:41:49;9.50;99.90
35373;DHT22;21476;51.652;7.852;2023-02-21T17:44:16;9.50;99.90
35373;DHT22;21476;51.652;7.852;2023-02-21T17:46:46;9.50;99.90
35373;DHT22;21476;51.652;7.852;2023-02-21T17:49:14;9.50;99.90
35373;DHT22;21476;51.652;7.852;2023-02-21T17:51:40;9.50;99.90
35373;DHT22;21476;51.652;7.852;2023-02-21T17:54:06;9.50;99.90
35373;DHT22;21476;51.652;7.852;2023-02-21T17:56:31;9.50;99.90
35373;DHT22;21476;51.652;7.852;2023-02-21T17:58:57;9.50;99.90
35373;DHT22;21476;51.652;7.852;2023-02-21T18:01:23;9.50;99.90
35373;DHT22;21476;51.652;7.852;2023-02-21T18:03:49;9.50;99.90
35373;DHT22;21476;51.652;7.852;2023-02-21T18:06:15;9.50;99.90
35373;DHT22;21476;51.652;7.852;2023-02-21T18:08:42;9.50;99.90
35373;DHT22;21476;51.652;7.852;2023-02-21T18:11:13;9.50;99.90
35373;DHT22;21476;51.652;7.852;2023-02-21T18:13:39;9.50;99.90
35373;DHT22;21476;51.652;7.852;2023-02-21T18:16:05;9.50;99.90
35373;DHT22;21476;51.652;7.852;2023-02-21T18:18:32;9.50;99.90
35373;DHT22;21476;51.652;7.852;2023-02-21T18:20:58;9.50;99.90
35373;DHT22;21476;51.652;7.852;2023-02-21T18:23:25;9.50;99.90
35373;DHT22;21476;51.652;7.852;2023-02-21T18:25:52;9.50;99.90
35373;DHT22;21476;51.652;7.852;2023-02-21T18:28:18;9.40;99.90
35373;DHT22;21476;51.652;7.852;2023-02-21T18:30:43;9.40;99.90
35373;DHT22;21476;51.652;7.852;2023-02-21T18:33:09;9.40;99.90
35373;DHT22;21476;51.652;7.852;2023-02-21T18:35:34;9.40;99.90
35373;DHT22;21476;51.652;7.852;2023-02-21T18:38:00;9.40;99.90
35373;DHT22;21476;51.652;7.852;2023-02-21T18:40:26;9.30;99.90
35373;DHT22;21476;51.652;7.852;2023-02-21T18:43:02;9.30;99.90
35373;DHT22;21476;51.652;7.852;2023-02-21T18:45:30;9.30;99.90
35373;DHT22;21476;51.652;7.852;2023-02-21T18:47:59;9.20;99.90
35373;DHT22;21476;51.652;7.852;2023-02-21T18:50:25;9.20;99.90
35373;DHT22;21476;51.652;7.852;2023-02-21T18:52:51;9.20;99.90
35373;DHT22;21476;51.652;7.852;2023-02-21T18:55:17;9.20;99.90
35373;DHT22;21476;51.652;7.852;2023-02-21T18:57:44;9.20;99.90
35373;DHT22;21476;51.652;7.852;2023-02-21T19:00:15;9.30;99.90
35373;DHT22;21476;51.652;7.852;2023-02-21T19:02:41;9.30;99.90
35373;DHT22;21476;51.652;7.852;2023-02-21T19:05:07;9.30;99.90
35373;DHT22;21476;51.652;7.852;2023-02-21T19:07:33;9.30;99.90
35373;DHT22;21476;51.652;7.852;2023-02-21T19:10:00;9.30;99.90
35373;DHT22;21476;51.652;7.852;2023-02-21T19:12:26;9.30;99.90
35373;DHT22;21476;51.652;7.852;2023-02-21T19:14:52;9.30;99.90
35373;DHT22;21476;51.652;7.852;2023-02-21T19:17:18;9.20;99.90
35373;DHT22;21476;51.652;7.852;2023-02-21T19:19:43;9.30;99.90